Time;durP1;ratioP1;P1;durP2;ratioP2;P2;SDS_P1;SDS_P2;PMS_P1;PMS_P2;Temp;Humidity;BMP_temperature;BMP_pressure;BME280_temperature;BME280_humidity;BME280_pressure;Samples;Min_cycle;Max_cycle;Signal;HPM_P1;HPM_P2
2022/10/06 00:01:01;;;;;;;4.97;2.63;;;20.20;90.40;;;;;;6310893;22;20026;-83
2022/10/06 00:03:29;;;;;;;4.80;3.10;;;20.20;90.40;;;;;;6338371;22;20071;-84
2022/10/06 00:05:59;;;;;;;4.72;3.28;;;20.30;90.40;;;;;;6340742;22;20003;-91
2022/10/06 00:08:25;;;;;;;4.47;2.35;;;20.30;90.40;;;;;;6341331;22;20380;-90
2022/10/06 00:10:55;;;;;;;4.18;3.10;;;20.30;90.40;;;;;;6341538;22;19999;-89
2022/10/06 00:13:21;;;;;;;4.07;3.03;;;20.20;90.40;;;;;;6341276;22;20007;-91
2022/10/06 00:15:47;;;;;;;4.22;2.50;;;20.20;90.40;;;;;;6342555;22;20003;-91
2022/10/06 00:18:13;;;;;;;6.00;2.80;;;20.20;90.50;;;;;;6340679;22;20033;-83
2022/10/06 00:20:42;;;;;;;2.78;2.50;;;20.20;90.50;;;;;;6338661;22;20029;-83
2022/10/06 00:23:08;;;;;;;3.17;2.38;;;20.20;90.40;;;;;;6310516;22;20436;-84
2022/10/06 00:25:34;;;;;;;3.25;2.42;;;20.20;90.40;;;;;;6338595;22;20006;-84
2022/10/06 00:28:00;;;;;;;6.28;2.63;;;20.20;90.40;;;;;;6339005;22;20070;-84
2022/10/06 00:30:28;;;;;;;4.68;2.30;;;20.20;90.40;;;;;;6309013;22;20007;-83
2022/10/06 00:32:56;;;;;;;5.38;2.85;;;20.20;90.40;;;;;;6338432;22;19994;-87
2022/10/06 00:35:27;;;;;;;3.30;2.38;;;20.20;90.40;;;;;;6338569;22;20007;-87
2022/10/06 00:37:53;;;;;;;5.22;2.92;;;20.30;90.50;;;;;;6338292;22;20472;-87
2022/10/06 00:40:20;;;;;;;3.60;2.58;;;20.20;90.50;;;;;;6339097;22;20009;-88
2022/10/06 00:43:03;;;;;;;5.20;2.72;;;20.20;90.50;;;;;;6313035;22;20002;-88
2022/10/06 00:45:32;;;;;;;3.97;3.08;;;20.20;90.50;;;;;;6340179;22;20332;-88
2022/10/06 00:48:02;;;;;;;4.10;3.10;;;20.20;90.60;;;;;;6339889;22;20048;-90
2022/10/06 00:50:29;;;;;;;4.50;3.03;;;20.20;90.60;;;;;;6341591;22;20008;-91
2022/10/06 00:52:55;;;;;;;3.28;2.63;;;20.20;90.60;;;;;;6340536;22;19995;-89
2022/10/06 00:55:21;;;;;;;5.13;2.97;;;20.20;90.70;;;;;;6355343;22;20009;-92
2022/10/06 00:57:49;;;;;;;3.72;2.72;;;20.20;90.70;;;;;;6355003;22;20005;-96
2022/10/06 01:00:14;;;;;;;4.88;2.67;;;20.20;90.80;;;;;;6313107;22;20011;-88
2022/10/06 01:03:10;;;;;;;4.22;2.53;;;20.20;90.80;;;;;;6339327;22;20010;-90
2022/10/06 01:05:42;;;;;;;5.15;3.53;;;20.30;90.90;;;;;;6340498;22;20026;-90
2022/10/06 01:08:08;;;;;;;4.15;3.00;;;20.20;90.90;;;;;;6339135;22;20377;-89
2022/10/06 01:10:34;;;;;;;4.95;2.83;;;20.20;90.90;;;;;;6340002;22;20028;-88
2022/10/06 01:13:01;;;;;;;4.78;3.03;;;20.20;90.90;;;;;;6339241;22;19999;-87
2022/10/06 01:15:27;;;;;;;7.25;3.75;;;20.20;90.90;;;;;;6339503;22;20003;-88
2022/10/06 01:17:59;;;;;;;4.15;3.03;;;20.20;90.90;;;;;;6338911;22;20424;-87
2022/10/06 01:20:25;;;;;;;6.57;3.50;;;20.20;91.00;;;;;;6339372;22;20010;-87
2022/10/06 01:23:00;;;;;;;3.67;3.10;;;20.20;91.00;;;;;;6338693;22;20023;-85
2022/10/06 01:25:27;;;;;;;4.60;3.08;;;20.20;91.00;;;;;;6338387;22;20382;-84
2022/10/06 01:27:54;;;;;;;4.72;3.22;;;20.20;91.00;;;;;;6337682;22;20486;-83
2022/10/06 01:30:40;;;;;;;4.07;2.92;;;20.20;91.00;;;;;;6337956;22;20026;-83
2022/10/06 01:33:06;;;;;;;5.32;3.60;;;20.20;91.00;;;;;;6338300;22;20428;-83
2022/10/06 01:35:31;;;;;;;6.57;4.00;;;20.20;91.10;;;;;;6338057;22;20113;-84
2022/10/06 01:37:58;;;;;;;4.68;3.28;;;20.20;91.20;;;;;;6337133;22;20428;-83
2022/10/06 01:40:25;;;;;;;5.43;3.58;;;20.10;91.20;;;;;;6337556;22;19995;-84
2022/10/06 01:42:51;;;;;;;6.05;3.55;;;20.10;91.20;;;;;;6337599;22;19995;-83
2022/10/06 01:45:17;;;;;;;4.95;3.92;;;20.10;91.30;;;;;;6337752;22;20010;-84
2022/10/06 01:47:43;;;;;;;5.78;3.83;;;20.10;91.30;;;;;;6337972;22;20714;-83
2022/10/06 01:50:09;;;;;;;6.88;4.72;;;20.10;91.40;;;;;;6336996;22;19995;-84
2022/10/06 01:52:35;;;;;;;5.13;4.05;;;20.00;91.50;;;;;;6337658;22;20002;-83
2022/10/06 01:55:01;;;;;;;7.88;5.28;;;20.00;91.40;;;;;;6337485;22;20007;-83
2022/10/06 01:57:27;;;;;;;6.40;5.07;;;20.00;91.50;;;;;;6338138;22;20010;-85
2022/10/06 01:59:52;;;;;;;7.45;5.07;;;19.90;91.60;;;;;;6337436;22;19999;-85
2022/10/06 02:02:18;;;;;;;6.20;4.75;;;19.90;91.60;;;;;;6338485;22;20030;-87
2022/10/06 02:04:44;;;;;;;6.97;4.30;;;19.90;91.60;;;;;;6339286;22;20439;-89
2022/10/06 02:07:10;;;;;;;7.00;4.32;;;19.90;91.60;;;;;;6339402;22;19994;-92
2022/10/06 02:09:36;;;;;;;6.47;5.20;;;19.90;91.70;;;;;;6344461;22;19999;-92
2022/10/06 02:12:03;;;;;;;8.75;4.88;;;20.00;91.70;;;;;;6315758;22;19999;-91
2022/10/06 02:14:30;;;;;;;7.50;5.63;;;20.00;91.60;;;;;;6343553;22;20010;-92
2022/10/06 02:16:56;;;;;;;6.15;4.78;;;20.00;91.60;;;;;;6340210;22;20011;-89
2022/10/06 02:19:22;;;;;;;9.35;6.32;;;20.00;91.60;;;;;;6340137;22;20002;-89
2022/10/06 02:21:47;;;;;;;7.85;6.03;;;20.00;91.70;;;;;;6339519;22;19998;-86
2022/10/06 02:24:13;;;;;;;8.63;7.32;;;20.00;91.70;;;;;;6339467;22;20006;-88
2022/10/06 02:26:39;;;;;;;8.73;7.43;;;20.00;91.70;;;;;;6339255;22;20104;-87
2022/10/06 02:29:05;;;;;;;10.10;7.43;;;20.10;91.70;;;;;;6339550;22;20075;-87
2022/10/06 02:31:31;;;;;;;9.10;7.90;;;20.00;91.60;;;;;;6339569;22;20027;-89
2022/10/06 02:33:57;;;;;;;11.70;8.80;;;20.10;91.70;;;;;;6339114;22;20302;-87
2022/10/06 02:36:23;;;;;;;10.57;8.77;;;20.00;91.70;;;;;;6338803;22;20012;-85
2022/10/06 02:38:49;;;;;;;11.63;9.38;;;20.00;91.70;;;;;;6336477;22;20485;-82
2022/10/06 02:41:14;;;;;;;13.30;10.48;;;20.00;91.80;;;;;;6337567;22;20002;-83
2022/10/06 02:43:40;;;;;;;10.50;9.40;;;20.00;91.80;;;;;;6337623;22;20081;-83
2022/10/06 02:46:10;;;;;;;10.75;9.48;;;20.00;91.80;;;;;;6337121;22;20031;-82
2022/10/06 02:48:36;;;;;;;;;;;20.00;91.80;;;;;;6337261;22;19995;-82
2022/10/06 02:51:08;;;;;;;13.50;10.40;;;20.00;92.10;;;;;;6336691;22;19899;-82
2022/10/06 02:53:35;;;;;;;15.50;11.23;;;20.00;91.80;;;;;;6337017;22;20056;-84
2022/10/06 02:56:09;;;;;;;14.20;10.65;;;20.00;91.90;;;;;;6337873;22;20037;-84
2022/10/06 02:58:36;;;;;;;12.90;10.25;;;20.00;91.90;;;;;;6337094;22;20462;-83
2022/10/06 03:01:04;;;;;;;13.77;10.68;;;20.00;92.00;;;;;;6336664;22;20003;-83
2022/10/06 03:03:31;;;;;;;16.88;12.98;;;20.00;91.90;;;;;;6309997;22;20015;-84
2022/10/06 03:06:20;;;;;;;12.73;10.15;;;20.00;91.90;;;;;;6337297;22;19995;-85
2022/10/06 03:08:52;;;;;;;15.77;11.77;;;20.00;91.90;;;;;;6336639;22;20078;-83
2022/10/06 03:11:20;;;;;;;14.10;11.88;;;20.00;91.90;;;;;;6309189;22;20005;-83
2022/10/06 03:13:46;;;;;;;11.82;10.32;;;20.00;92.00;;;;;;6339248;22;20007;-84
2022/10/06 03:16:24;;;;;;;12.38;10.07;;;20.00;92.00;;;;;;6339596;22;20022;-85
2022/10/06 03:18:51;;;;;;;12.77;9.93;;;20.00;92.00;;;;;;6339172;22;20007;-87
2022/10/06 03:21:18;;;;;;;13.73;10.70;;;20.00;92.10;;;;;;6339421;22;19999;-86
2022/10/06 03:23:46;;;;;;;14.68;11.20;;;20.00;92.10;;;;;;6340063;22;20359;-88
2022/10/06 03:26:14;;;;;;;14.15;10.75;;;20.00;92.10;;;;;;6339500;22;20021;-85
2022/10/06 03:28:40;;;;;;;13.93;11.20;;;20.00;92.10;;;;;;6342670;22;19998;-93
2022/10/06 03:31:07;;;;;;;14.52;11.73;;;20.00;92.00;;;;;;6346163;22;20033;-92
2022/10/06 03:33:33;;;;;;;16.55;11.68;;;20.00;92.00;;;;;;6341724;22;20037;-88
2022/10/06 03:35:59;;;;;;;14.30;12.30;;;20.00;92.10;;;;;;6339960;22;19999;-87
2022/10/06 03:38:25;;;;;;;18.13;14.00;;;20.00;92.20;;;;;;6340328;22;20132;-87
2022/10/06 03:40:51;;;;;;;15.25;12.18;;;20.00;92.30;;;;;;6340209;22;19995;-87
2022/10/06 03:43:20;;;;;;;12.00;10.50;;;19.90;92.30;;;;;;6339305;22;20006;-86
2022/10/06 03:45:55;;;;;;;13.77;11.88;;;19.90;92.60;;;;;;6313087;22;20081;-89
2022/10/06 03:48:21;;;;;;;17.30;11.82;;;19.90;92.40;;;;;;6340473;22;20006;-89
2022/10/06 03:50:57;;;;;;;14.25;10.68;;;19.90;92.40;;;;;;6339880;22;20360;-86
2022/10/06 03:53:26;;;;;;;15.95;12.35;;;20.00;92.40;;;;;;6339509;22;20006;-86
2022/10/06 03:56:03;;;;;;;16.63;12.10;;;19.90;92.40;;;;;;6340562;22;20325;-90
2022/10/06 03:58:30;;;;;;;15.80;13.38;;;19.90;92.40;;;;;;6340770;22;20039;-87
2022/10/06 04:01:08;;;;;;;16.92;13.13;;;19.90;92.60;;;;;;6340124;22;20007;-87
2022/10/06 04:03:34;;;;;;;15.32;12.00;;;19.90;92.40;;;;;;6339267;22;20007;-86
2022/10/06 04:06:03;;;;;;;13.52;12.10;;;19.90;92.40;;;;;;6338892;22;19999;-86
2022/10/06 04:08:29;;;;;;;15.02;12.65;;;19.90;92.30;;;;;;6339778;22;20006;-87
2022/10/06 04:11:02;;;;;;;12.10;10.65;;;19.90;92.30;;;;;;6312221;22;20029;-89
2022/10/06 04:13:28;;;;;;;16.52;12.88;;;19.90;92.30;;;;;;6339451;22;20310;-88
2022/10/06 04:15:54;;;;;;;13.10;11.43;;;19.90;92.30;;;;;;6339666;22;20009;-88
2022/10/06 04:18:20;;;;;;;13.55;11.80;;;19.90;92.30;;;;;;6340098;22;20003;-87
2022/10/06 04:20:46;;;;;;;15.15;11.45;;;19.90;92.30;;;;;;6341636;22;20136;-89
2022/10/06 04:23:12;;;;;;;16.90;11.40;;;19.90;92.30;;;;;;6313071;22;20002;-88
2022/10/06 04:25:38;;;;;;;13.50;11.55;;;19.90;92.20;;;;;;6340602;22;20005;-88
2022/10/06 04:28:04;;;;;;;18.20;12.88;;;19.90;92.10;;;;;;6312025;22;20086;-87
2022/10/06 04:30:30;;;;;;;15.13;11.48;;;19.90;92.00;;;;;;6340102;22;20044;-86
2022/10/06 04:32:55;;;;;;;14.52;11.23;;;19.90;92.00;;;;;;6343301;22;20025;-90
2022/10/06 04:35:22;;;;;;;16.20;12.32;;;19.90;92.00;;;;;;6314658;22;20011;-89
2022/10/06 04:37:48;;;;;;;15.05;12.10;;;19.90;91.90;;;;;;6339548;22;20003;-88
2022/10/06 04:40:15;;;;;;;15.05;11.55;;;19.90;91.90;;;;;;6339394;22;19999;-86
2022/10/06 04:42:42;;;;;;;15.65;13.15;;;19.90;91.90;;;;;;6338193;22;20002;-84
2022/10/06 04:45:09;;;;;;;18.63;12.05;;;19.90;91.90;;;;;;6338599;22;20029;-86
2022/10/06 04:47:34;;;;;;;14.82;12.55;;;19.80;91.90;;;;;;6339090;22;20006;-85
2022/10/06 04:50:00;;;;;;;14.77;12.07;;;19.80;91.90;;;;;;6339294;22;20089;-87
2022/10/06 04:52:26;;;;;;;14.85;12.82;;;19.80;91.90;;;;;;6338921;22;19999;-86
2022/10/06 04:54:51;;;;;;;15.90;11.85;;;19.80;91.90;;;;;;6338416;22;20083;-87
2022/10/06 04:57:17;;;;;;;16.90;12.95;;;19.80;92.00;;;;;;6338698;22;20309;-88
2022/10/06 05:02:35;;;;;;;16.48;12.32;;;19.80;92.10;;;;;;6290880;22;20358;-87
2022/10/06 05:05:01;;;;;;;17.17;12.48;;;19.80;92.00;;;;;;6338386;22;20002;-86
2022/10/06 05:07:27;;;;;;;15.43;12.93;;;19.80;92.00;;;;;;6338855;22;20090;-87
2022/10/06 05:09:52;;;;;;;16.70;13.18;;;19.80;92.10;;;;;;6339464;22;20052;-86
2022/10/06 05:12:18;;;;;;;17.45;13.30;;;19.80;92.10;;;;;;6337838;22;19999;-83
2022/10/06 05:14:45;;;;;;;14.85;11.88;;;19.80;92.20;;;;;;6337471;22;20006;-83
2022/10/06 05:17:11;;;;;;;15.00;11.85;;;19.80;92.30;;;;;;6338193;22;20009;-83
2022/10/06 05:19:37;;;;;;;15.27;11.93;;;19.80;92.30;;;;;;6338134;22;20030;-82
2022/10/06 05:22:02;;;;;;;22.15;13.85;;;19.80;92.30;;;;;;6338010;22;19999;-82
2022/10/06 05:24:28;;;;;;;14.00;12.00;;;19.80;92.30;;;;;;6337586;22;20805;-82
2022/10/06 05:26:54;;;;;;;14.25;12.32;;;19.80;92.40;;;;;;6338387;22;20002;-83
2022/10/06 05:29:19;;;;;;;15.75;12.88;;;19.80;92.40;;;;;;6337580;22;20322;-84
2022/10/06 05:31:45;;;;;;;14.30;10.85;;;19.70;92.50;;;;;;6338776;22;19995;-83
2022/10/06 05:34:11;;;;;;;15.63;11.65;;;19.80;92.50;;;;;;6337853;22;20010;-82
2022/10/06 05:36:37;;;;;;;12.82;11.52;;;19.80;92.50;;;;;;6337925;22;20025;-82
2022/10/06 05:39:03;;;;;;;14.90;11.38;;;19.80;92.50;;;;;;6338239;22;20418;-83
2022/10/06 05:41:30;;;;;;;15.20;12.18;;;19.80;92.50;;;;;;6310341;22;20034;-82
2022/10/06 05:43:57;;;;;;;14.75;11.77;;;19.80;92.50;;;;;;6337183;22;19999;-84
2022/10/06 05:46:30;;;;;;;15.13;12.55;;;19.80;92.50;;;;;;6338344;22;20070;-84
2022/10/06 05:49:02;;;;;;;14.02;11.13;;;19.80;92.50;;;;;;6338564;22;20003;-83
2022/10/06 05:51:30;;;;;;;13.98;10.75;;;19.80;92.50;;;;;;6338283;22;19995;-85
2022/10/06 05:53:57;;;;;;;13.25;11.15;;;19.90;92.60;;;;;;6338153;22;20034;-83
2022/10/06 05:56:34;;;;;;;12.07;10.35;;;19.90;92.60;;;;;;6338494;22;20003;-84
2022/10/06 05:59:00;;;;;;;15.93;11.10;;;19.90;92.70;;;;;;6338763;22;20072;-81
2022/10/06 06:01:33;;;;;;;15.57;12.30;;;19.90;92.70;;;;;;6337526;22;20002;-81
2022/10/06 06:04:07;;;;;;;14.82;10.85;;;19.90;92.70;;;;;;6338639;22;20017;-82
2022/10/06 06:06:35;;;;;;;14.10;10.60;;;19.90;92.70;;;;;;6310875;22;20000;-85
2022/10/06 06:09:06;;;;;;;13.02;10.65;;;19.90;92.70;;;;;;6337661;22;19995;-81
2022/10/06 06:11:34;;;;;;;13.07;10.05;;;19.90;92.70;;;;;;6337917;22;20022;-82
2022/10/06 06:14:15;;;;;;;14.68;10.70;;;19.90;92.80;;;;;;6310299;22;20011;-81
2022/10/06 06:16:41;;;;;;;13.88;10.95;;;19.90;92.80;;;;;;6338328;22;20003;-81
2022/10/06 06:19:09;;;;;;;14.75;11.73;;;19.90;92.90;;;;;;6337063;22;20048;-82
2022/10/06 06:21:35;;;;;;;14.38;10.02;;;19.90;92.90;;;;;;6337705;22;20060;-81
2022/10/06 06:24:02;;;;;;;14.63;11.63;;;19.90;92.90;;;;;;6337636;22;20002;-82
2022/10/06 06:26:30;;;;;;;13.77;10.88;;;19.90;92.90;;;;;;6337750;22;19994;-82
2022/10/06 06:29:05;;;;;;;16.48;11.02;;;19.90;92.90;;;;;;6337577;22;20006;-82
2022/10/06 06:31:36;;;;;;;13.40;10.38;;;19.90;92.90;;;;;;6337730;22;20340;-83
2022/10/06 06:34:05;;;;;;;15.55;12.48;;;19.90;92.90;;;;;;6338382;22;20118;-82
2022/10/06 06:36:39;;;;;;;10.90;9.75;;;19.90;92.90;;;;;;6337769;22;20435;-81
2022/10/06 06:39:09;;;;;;;12.82;10.02;;;19.90;92.80;;;;;;6337180;22;20291;-81
2022/10/06 06:41:38;;;;;;;15.50;10.55;;;20.00;92.80;;;;;;6337712;22;19999;-81
2022/10/06 06:44:07;;;;;;;15.63;11.13;;;20.00;92.80;;;;;;6338001;22;20007;-81
2022/10/06 06:46:33;;;;;;;12.35;10.57;;;20.00;92.90;;;;;;6337738;22;19999;-81
2022/10/06 06:49:03;;;;;;;13.40;10.15;;;19.90;92.90;;;;;;6338091;22;20321;-81
2022/10/06 06:51:40;;;;;;;13.75;9.93;;;19.90;93.00;;;;;;6337656;22;20063;-81
2022/10/06 06:54:07;;;;;;;15.68;10.90;;;19.90;93.00;;;;;;6338473;22;20326;-81
2022/10/06 06:56:33;;;;;;;16.05;11.65;;;19.90;93.10;;;;;;6306919;22;20042;-82
2022/10/06 06:59:01;;;;;;;21.27;15.85;;;19.90;93.10;;;;;;6337165;22;20034;-83
2022/10/06 07:01:27;;;;;;;19.63;13.88;;;19.70;93.00;;;;;;6337329;22;20010;-88
2022/10/06 07:04:00;;;;;;;12.52;11.00;;;19.60;93.40;;;;;;6310710;22;20007;-87
2022/10/06 07:06:27;;;;;;;14.70;10.43;;;19.50;93.40;;;;;;6338548;22;20065;-87
2022/10/06 07:08:54;;;;;;;13.05;9.43;;;19.60;93.50;;;;;;6314820;22;20374;-87
2022/10/06 07:11:26;;;;;;;21.70;12.10;;;19.60;93.50;;;;;;6311028;22;20006;-84
2022/10/06 07:13:53;;;;;;;20.15;13.45;;;19.60;93.50;;;;;;6337962;22;20010;-83
2022/10/06 07:27:27;;;;;;;18.52;12.02;;;19.70;93.40;;;;;;6337932;22;20487;-81
2022/10/06 07:29:53;;;;;;;16.45;9.70;;;19.80;93.40;;;;;;6337805;22;19995;-82
2022/10/06 07:32:24;;;;;;;16.00;12.20;;;19.90;93.20;;;;;;6336877;22;20006;-81
2022/10/06 07:34:50;;;;;;;18.52;14.48;;;19.90;93.30;;;;;;6337954;22;20006;-82
2022/10/06 07:37:17;;;;;;;14.98;11.38;;;19.80;93.30;;;;;;6338316;22;20333;-82
2022/10/06 07:39:43;;;;;;;12.93;10.95;;;19.80;93.50;;;;;;6337767;22;20026;-82
2022/10/06 07:42:14;;;;;;;17.15;13.77;;;19.80;93.60;;;;;;6309928;22;20381;-81
2022/10/06 07:44:40;;;;;;;;;;;19.80;93.40;;;;;;6337813;22;20082;-82
2022/10/06 07:47:05;;;;;;;17.73;14.02;;;19.70;93.40;;;;;;6310858;22;19981;-81
2022/10/06 07:49:31;;;;;;;21.73;15.20;;;19.60;93.70;;;;;;6310073;22;20058;-81
2022/10/06 07:51:57;;;;;;;18.27;14.13;;;19.60;93.90;;;;;;6310128;22;20223;-80
2022/10/06 07:54:24;;;;;;;21.45;16.00;;;19.60;93.90;;;;;;6337724;22;19999;-80
2022/10/06 07:56:50;;;;;;;25.50;14.15;;;19.60;93.80;;;;;;6337744;22;20014;-80
2022/10/06 07:59:16;;;;;;;19.48;15.25;;;19.60;93.90;;;;;;6339304;22;20367;-80
2022/10/06 08:01:43;;;;;;;13.68;10.23;;;19.70;93.90;;;;;;6312013;22;20007;-81
2022/10/06 08:04:09;;;;;;;22.42;15.07;;;19.80;93.90;;;;;;6312349;22;20018;-82
2022/10/06 08:06:35;;;;;;;23.50;15.05;;;19.80;93.80;;;;;;6339064;22;19999;-81
2022/10/06 08:09:01;;;;;;;17.70;13.65;;;19.90;93.70;;;;;;6339772;22;20001;-81
2022/10/06 08:11:26;;;;;;;12.75;11.20;;;20.00;93.60;;;;;;6339488;22;19999;-84
2022/10/06 08:13:52;;;;;;;12.38;10.43;;;20.00;93.50;;;;;;6340431;22;20071;-84
2022/10/06 08:16:20;;;;;;;11.60;8.88;;;20.10;93.50;;;;;;6339132;22;19999;-84
2022/10/06 08:18:53;;;;;;;10.57;7.65;;;20.20;93.40;;;;;;6339443;22;20421;-84
2022/10/06 08:21:28;;;;;;;13.52;10.55;;;20.40;93.30;;;;;;6339459;22;20329;-83
2022/10/06 08:23:55;;;;;;;11.15;9.10;;;20.50;92.90;;;;;;6339156;22;20003;-84
2022/10/06 08:26:22;;;;;;;10.90;8.93;;;20.60;92.80;;;;;;6338497;22;19999;-84
2022/10/06 08:28:50;;;;;;;21.08;13.07;;;20.60;92.80;;;;;;6340422;22;20074;-84
2022/10/06 08:31:18;;;;;;;10.32;8.23;;;20.60;92.80;;;;;;6339827;22;19995;-82
2022/10/06 08:33:44;;;;;;;10.95;8.35;;;20.60;92.80;;;;;;6340007;22;19999;-84
2022/10/06 08:36:17;;;;;;;8.75;6.43;;;20.70;92.80;;;;;;6338843;22;20078;-84
2022/10/06 08:38:50;;;;;;;10.40;7.18;;;20.90;92.70;;;;;;6339737;22;20407;-85
2022/10/06 08:41:24;;;;;;;8.27;5.88;;;21.00;92.60;;;;;;6339677;22;20005;-85
2022/10/06 08:43:58;;;;;;;8.60;6.40;;;21.10;92.40;;;;;;6339457;22;20003;-85
2022/10/06 08:46:30;;;;;;;12.93;9.63;;;21.30;92.30;;;;;;6338941;22;19994;-82
2022/10/06 08:49:00;;;;;;;7.43;6.35;;;21.40;91.90;;;;;;6312129;22;19998;-82
2022/10/06 08:51:34;;;;;;;9.55;7.15;;;21.50;91.90;;;;;;6311841;22;20347;-81
2022/10/06 08:54:10;;;;;;;8.07;6.45;;;21.70;91.80;;;;;;6311590;22;20007;-81
2022/10/06 08:57:41;;;;;;;12.07;7.80;;;21.80;91.70;;;;;;6339279;22;20014;-81
2022/10/06 09:00:16;;;;;;;7.28;5.78;;;21.90;91.30;;;;;;6244506;22;20009;-82
2022/10/06 09:02:47;;;;;;;10.45;8.23;;;22.10;91.30;;;;;;6298814;22;20007;-81
2022/10/06 09:05:24;;;;;;;6.85;5.15;;;22.10;90.80;;;;;;6339025;22;20017;-81
2022/10/06 09:08:26;;;;;;;9.38;5.50;;;22.20;91.10;;;;;;6338665;22;20505;-80
2022/10/06 09:11:10;;;;;;;7.55;5.28;;;22.40;90.90;;;;;;6339622;22;19995;-80
2022/10/06 09:13:46;;;;;;;5.38;4.70;;;22.60;90.60;;;;;;6339391;22;20022;-80
2022/10/06 09:16:19;;;;;;;5.82;4.60;;;22.70;90.40;;;;;;6338742;22;19995;-82
2022/10/06 09:18:58;;;;;;;4.70;4.20;;;22.90;90.20;;;;;;6338899;22;20003;-81
2022/10/06 09:21:32;;;;;;;7.45;5.68;;;22.90;90.00;;;;;;6339224;22;20006;-82
2022/10/06 09:24:05;;;;;;;5.45;3.33;;;22.90;88.30;;;;;;6339063;22;19998;-82
2022/10/06 09:26:33;;;;;;;4.95;2.90;;;23.00;89.60;;;;;;6338381;22;19999;-82
2022/10/06 09:28:59;;;;;;;5.15;3.42;;;23.10;89.60;;;;;;6338433;22;20006;-82
2022/10/06 09:31:33;;;;;;;6.70;5.53;;;23.20;89.30;;;;;;6338864;22;19999;-82
2022/10/06 09:34:05;;;;;;;5.22;3.85;;;23.20;87.90;;;;;;6338986;22;20006;-81
2022/10/06 09:36:31;;;;;;;5.78;3.30;;;23.20;88.50;;;;;;6338400;22;19998;-81
2022/10/06 09:38:58;;;;;;;4.35;3.20;;;23.20;88.40;;;;;;6339204;22;20006;-81
2022/10/06 09:41:27;;;;;;;3.97;2.90;;;23.30;88.40;;;;;;6338955;22;20003;-82
2022/10/06 09:44:04;;;;;;;3.45;2.60;;;23.30;88.20;;;;;;6338579;22;20002;-81
2022/10/06 09:46:40;;;;;;;5.13;3.80;;;23.30;87.80;;;;;;6338558;22;19999;-81
2022/10/06 09:49:17;;;;;;;4.07;3.03;;;23.20;87.30;;;;;;6338404;22;20003;-82
2022/10/06 09:52:14;;;;;;;6.65;3.28;;;23.20;87.70;;;;;;6338517;22;20002;-81
2022/10/06 09:54:42;;;;;;;4.93;3.10;;;23.20;87.00;;;;;;6333561;22;20007;-82
2022/10/06 09:57:20;;;;;;;4.28;3.50;;;23.20;86.90;;;;;;6337954;22;20015;-81
2022/10/06 09:59:47;;;;;;;4.32;2.85;;;23.10;86.60;;;;;;6338770;22;20051;-82
2022/10/06 10:02:39;;;;;;;3.85;2.80;;;23.10;87.40;;;;;;6338293;22;19999;-81
2022/10/06 10:05:27;;;;;;;4.05;2.50;;;23.30;87.60;;;;;;6335440;22;20011;-81
2022/10/06 10:08:08;;;;;;;7.10;4.32;;;23.50;87.20;;;;;;6337601;22;20078;-82
2022/10/06 10:10:35;;;;;;;5.88;3.88;;;23.80;85.70;;;;;;6337899;22;20005;-81
2022/10/06 10:13:03;;;;;;;4.55;3.30;;;23.80;85.50;;;;;;6338297;22;19998;-82
2022/10/06 10:15:55;;;;;;;4.32;3.35;;;23.90;85.50;;;;;;6337169;22;20027;-81
2022/10/06 10:18:29;;;;;;;3.50;2.35;;;24.00;85.10;;;;;;6337380;22;20019;-81
2022/10/06 10:21:07;;;;;;;6.93;2.90;;;24.10;85.50;;;;;;6338158;22;20307;-81
2022/10/06 10:23:39;;;;;;;3.80;2.83;;;24.10;85.10;;;;;;6337927;22;20002;-82
2022/10/06 10:26:31;;;;;;;3.72;3.20;;;24.10;85.00;;;;;;6337827;22;20429;-82
2022/10/06 10:29:29;;;;;;;4.72;3.10;;;24.10;84.80;;;;;;6336945;22;20003;-81
2022/10/06 10:32:23;;;;;;;5.10;3.47;;;24.10;84.00;;;;;;6338402;22;20002;-82
2022/10/06 10:35:20;;;;;;;4.43;3.13;;;23.90;84.30;;;;;;6338065;22;20003;-81
2022/10/06 10:38:04;;;;;;;3.20;2.90;;;23.90;84.40;;;;;;6337127;22;20034;-81
2022/10/06 10:40:58;;;;;;;4.72;3.75;;;23.80;84.90;;;;;;6336694;22;20002;-83
2022/10/06 10:43:37;;;;;;;6.65;3.90;;;23.70;84.40;;;;;;6337711;22;20010;-80
2022/10/06 10:46:11;;;;;;;6.63;3.90;;;23.60;84.50;;;;;;6337735;22;20009;-80
2022/10/06 10:49:08;;;;;;;3.47;2.80;;;23.50;84.50;;;;;;6337823;22;20018;-79
2022/10/06 10:51:39;;;;;;;5.50;3.50;;;23.60;84.60;;;;;;6337912;22;20068;-81
2022/10/06 10:54:16;;;;;;;3.65;3.10;;;23.50;84.70;;;;;;6338207;22;19999;-79
2022/10/06 10:56:45;;;;;;;4.80;2.63;;;23.50;84.80;;;;;;6337919;22;20021;-81
2022/10/06 10:59:23;;;;;;;4.05;2.65;;;23.50;85.00;;;;;;6309443;22;20042;-82
2022/10/06 11:02:00;;;;;;;6.85;2.85;;;23.60;85.40;;;;;;6338427;22;20002;-81
2022/10/06 11:04:26;;;;;;;3.80;2.78;;;23.60;85.60;;;;;;6338004;22;20006;-82
2022/10/06 11:07:28;;;;;;;4.85;3.97;;;23.70;85.50;;;;;;6336967;22;20070;-82
2022/10/06 11:10:12;;;;;;;5.80;3.42;;;23.70;85.10;;;;;;6285010;22;20302;-82
2022/10/06 11:12:53;;;;;;;5.22;3.72;;;23.90;85.20;;;;;;6337460;22;20010;-82
2022/10/06 11:15:33;;;;;;;8.75;3.80;;;24.10;84.90;;;;;;6337456;22;20051;-81
2022/10/06 11:18:21;;;;;;;4.43;3.25;;;24.40;84.10;;;;;;6337729;22;20003;-82
2022/10/06 11:20:56;;;;;;;4.03;3.38;;;24.80;83.50;;;;;;6337847;22;20003;-81
2022/10/06 11:23:31;;;;;;;7.00;3.55;;;25.10;82.60;;;;;;6336900;22;20006;-82
2022/10/06 11:26:24;;;;;;;4.50;3.05;;;25.40;82.60;;;;;;6309265;22;20033;-81
2022/10/06 11:28:54;;;;;;;5.45;4.03;;;25.70;81.20;;;;;;6308152;22;20436;-81
2022/10/06 11:31:39;;;;;;;6.03;3.30;;;26.10;80.50;;;;;;6337323;22;19999;-81
2022/10/06 11:34:05;;;;;;;5.60;3.22;;;26.30;79.20;;;;;;6339192;22;20153;-81
2022/10/06 11:36:55;;;;;;;6.68;4.88;;;26.50;78.70;;;;;;6339260;22;20006;-81
2022/10/06 11:39:46;;;;;;;7.68;6.32;;;26.40;73.90;;;;;;6337655;22;20033;-82
2022/10/06 11:42:39;;;;;;;8.30;7.50;;;26.00;74.60;;;;;;6338680;22;20003;-83
2022/10/06 11:45:15;;;;;;;7.57;5.13;;;25.70;74.50;;;;;;6339029;22;20010;-81
2022/10/06 11:47:53;;;;;;;6.47;4.15;;;25.40;76.10;;;;;;6339037;22;19998;-80
2022/10/06 11:50:51;;;;;;;7.68;4.97;;;25.20;77.20;;;;;;6338385;22;20416;-81
2022/10/06 11:53:38;;;;;;;9.05;6.85;;;25.00;78.00;;;;;;6325272;22;20425;-81
2022/10/06 11:56:16;;;;;;;8.65;4.85;;;24.90;77.40;;;;;;6310826;22;20019;-81
2022/10/06 11:58:51;;;;;;;7.57;5.55;;;24.80;78.50;;;;;;6311599;22;20010;-81
2022/10/06 12:01:29;;;;;;;6.13;4.97;;;24.70;78.80;;;;;;6327140;22;19999;-80
2022/10/06 12:04:06;;;;;;;6.70;4.65;;;24.70;78.90;;;;;;6338506;22;19999;-80
2022/10/06 12:06:41;;;;;;;5.97;5.13;;;24.60;79.00;;;;;;6338748;22;20417;-79
2022/10/06 12:09:29;;;;;;;6.70;5.53;;;24.50;79.40;;;;;;6337637;22;20005;-81
2022/10/06 12:11:55;;;;;;;4.75;4.25;;;24.40;79.50;;;;;;6337397;22;19995;-81
2022/10/06 12:14:36;;;;;;;5.97;3.53;;;24.40;79.80;;;;;;6339140;22;20003;-80
2022/10/06 12:17:12;;;;;;;6.85;3.58;;;24.30;80.30;;;;;;6338534;22;20013;-80
2022/10/06 12:20:00;;;;;;;5.75;3.90;;;24.30;80.80;;;;;;6338503;22;20003;-80
2022/10/06 12:22:33;;;;;;;4.95;3.28;;;24.20;81.30;;;;;;6338208;22;20077;-80
2022/10/06 12:25:17;;;;;;;6.13;3.63;;;24.20;81.60;;;;;;6337562;22;20033;-79
2022/10/06 12:28:01;;;;;;;5.80;3.42;;;24.50;81.90;;;;;;6337964;22;20074;-80
2022/10/06 12:30:49;;;;;;;6.63;3.72;;;25.00;81.30;;;;;;6335011;22;19994;-80
2022/10/06 12:33:17;;;;;;;7.22;3.50;;;25.60;79.60;;;;;;6338784;22;20013;-88
2022/10/06 12:35:43;;;;;;;5.35;3.30;;;26.10;78.30;;;;;;6339702;22;20027;-87
2022/10/06 12:38:30;;;;;;;5.10;3.85;;;26.50;76.40;;;;;;6340082;22;20367;-87
2022/10/06 12:40:56;;;;;;;7.80;4.53;;;27.00;75.20;;;;;;6339904;22;20003;-88
2022/10/06 12:43:22;;;;;;;8.93;5.32;;;27.20;74.30;;;;;;6312587;22;20030;-87
2022/10/06 12:45:57;;;;;;;7.07;5.68;;;27.50;73.50;;;;;;6338917;22;20014;-88
2022/10/06 12:48:44;;;;;;;10.70;6.13;;;27.80;72.40;;;;;;6339438;22;19999;-88
2022/10/06 12:51:19;;;;;;;8.05;5.70;;;28.00;71.30;;;;;;6339434;22;20325;-88
2022/10/06 12:53:51;;;;;;;10.93;6.45;;;28.20;70.50;;;;;;6339158;22;20003;-88
2022/10/06 12:56:41;;;;;;;8.68;5.75;;;28.20;69.80;;;;;;6311093;22;20046;-88
2022/10/06 12:59:20;;;;;;;8.52;5.47;;;28.20;68.50;;;;;;6311943;22;20083;-88
2022/10/06 13:01:54;;;;;;;8.80;6.00;;;28.00;69.50;;;;;;6339420;22;20086;-88
2022/10/06 13:04:52;;;;;;;8.60;5.22;;;27.80;69.70;;;;;;6339576;22;20006;-88
2022/10/06 13:07:29;;;;;;;6.43;4.68;;;27.60;70.10;;;;;;6339580;22;19998;-88
2022/10/06 13:10:13;;;;;;;10.68;5.28;;;27.30;70.60;;;;;;6338922;22;19999;-90
2022/10/06 13:12:41;;;;;;;8.93;6.60;;;25.90;70.30;;;;;;6337993;22;20455;-87
2022/10/06 13:15:30;;;;;;;9.07;5.50;;;26.90;71.40;;;;;;6338615;22;20026;-87